sensor_id;sensor_type;location;lat;lon;timestamp;temperature;humidity
11656;DHT22;5884;43.618;1.438;2022-12-18T05:45:38;2.70;99.90
11656;DHT22;5884;43.618;1.438;2022-12-18T05:48:06;2.70;99.90
11656;DHT22;5884;43.618;1.438;2022-12-18T05:50:34;2.70;99.90
11656;DHT22;5884;43.618;1.438;2022-12-18T05:53:02;2.70;99.90
11656;DHT22;5884;43.618;1.438;2022-12-18T05:55:32;2.70;99.90
11656;DHT22;5884;43.618;1.438;2022-12-18T05:58:00;2.70;99.90
11656;DHT22;5884;43.618;1.438;2022-12-18T06:00:28;2.60;99.90
11656;DHT22;5884;43.618;1.438;2022-12-18T06:02:57;2.60;99.90
11656;DHT22;5884;43.618;1.438;2022-12-18T06:05:24;2.60;99.90
11656;DHT22;5884;43.618;1.438;2022-12-18T06:07:52;2.70;99.90
11656;DHT22;5884;43.618;1.438;2022-12-18T06:10:19;2.70;99.90
11656;DHT22;5884;43.618;1.438;2022-12-18T06:12:46;2.60;99.90
11656;DHT22;5884;43.618;1.438;2022-12-18T06:15:14;2.60;99.90
11656;DHT22;5884;43.618;1.438;2022-12-18T06:17:41;2.60;99.90
11656;DHT22;5884;43.618;1.438;2022-12-18T06:20:10;2.60;99.90
11656;DHT22;5884;43.618;1.438;2022-12-18T06:22:37;2.60;99.90
11656;DHT22;5884;43.618;1.438;2022-12-18T06:25:06;2.60;99.90
11656;DHT22;5884;43.618;1.438;2022-12-18T06:27:34;2.60;99.90
11656;DHT22;5884;43.618;1.438;2022-12-18T06:30:01;2.70;99.90
11656;DHT22;5884;43.618;1.438;2022-12-18T06:32:29;2.60;99.90
11656;DHT22;5884;43.618;1.438;2022-12-18T06:34:56;2.70;99.90
11656;DHT22;5884;43.618;1.438;2022-12-18T06:37:24;2.60;99.90
11656;DHT22;5884;43.618;1.438;2022-12-18T06:39:52;2.60;99.90
11656;DHT22;5884;43.618;1.438;2022-12-18T06:42:22;2.60;99.90
11656;DHT22;5884;43.618;1.438;2022-12-18T06:44:49;2.50;99.90
11656;DHT22;5884;43.618;1.438;2022-12-18T06:47:17;2.50;99.90
11656;DHT22;5884;43.618;1.438;2022-12-18T06:49:44;2.50;99.90
11656;DHT22;5884;43.618;1.438;2022-12-18T06:52:11;2.50;99.90
11656;DHT22;5884;43.618;1.438;2022-12-18T06:54:43;2.50;99.90
11656;DHT22;5884;43.618;1.438;2022-12-18T06:57:10;2.40;99.90
11656;DHT22;5884;43.618;1.438;2022-12-18T06:59:37;2.40;99.90
11656;DHT22;5884;43.618;1.438;2022-12-18T07:02:05;2.40;99.90
11656;DHT22;5884;43.618;1.438;2022-12-18T07:04:32;2.40;99.90
11656;DHT22;5884;43.618;1.438;2022-12-18T07:06:59;2.50;99.90
11656;DHT22;5884;43.618;1.438;2022-12-18T07:09:26;2.50;99.90
11656;DHT22;5884;43.618;1.438;2022-12-18T07:11:55;2.50;99.90
11656;DHT22;5884;43.618;1.438;2022-12-18T07:14:22;2.50;99.90
11656;DHT22;5884;43.618;1.438;2022-12-18T07:16:50;2.50;99.90
11656;DHT22;5884;43.618;1.438;2022-12-18T07:19:17;2.40;99.90
11656;DHT22;5884;43.618;1.438;2022-12-18T07:21:44;2.50;99.90
11656;DHT22;5884;43.618;1.438;2022-12-18T07:24:11;2.50;99.90
11656;DHT22;5884;43.618;1.438;2022-12-18T07:26:39;2.50;99.90
11656;DHT22;5884;43.618;1.438;2022-12-18T07:29:07;2.50;99.90
11656;DHT22;5884;43.618;1.438;2022-12-18T07:31:34;2.50;99.90
11656;DHT22;5884;43.618;1.438;2022-12-18T07:34:02;2.50;99.90
11656;DHT22;5884;43.618;1.438;2022-12-18T07:36:29;2.50;99.90
11656;DHT22;5884;43.618;1.438;2022-12-18T07:38:56;2.50;99.90
11656;DHT22;5884;43.618;1.438;2022-12-18T07:41:23;2.50;99.90
11656;DHT22;5884;43.618;1.438;2022-12-18T07:43:51;2.50;99.90
11656;DHT22;5884;43.618;1.438;2022-12-18T07:46:19;2.60;99.90
11656;DHT22;5884;43.618;1.438;2022-12-18T07:48:47;2.60;99.90
11656;DHT22;5884;43.618;1.438;2022-12-18T07:51:14;2.60;99.90
11656;DHT22;5884;43.618;1.438;2022-12-18T07:53:41;2.70;99.90
11656;DHT22;5884;43.618;1.438;2022-12-18T07:56:11;2.60;99.90
11656;DHT22;5884;43.618;1.438;2022-12-18T07:58:38;2.60;99.90
11656;DHT22;5884;43.618;1.438;2022-12-18T08:01:07;2.60;99.90
11656;DHT22;5884;43.618;1.438;2022-12-18T08:03:37;2.70;99.90
11656;DHT22;5884;43.618;1.438;2022-12-18T08:06:07;2.70;99.90
11656;DHT22;5884;43.618;1.438;2022-12-18T08:08:36;2.80;99.90
11656;DHT22;5884;43.618;1.438;2022-12-18T08:11:03;2.80;99.90
11656;DHT22;5884;43.618;1.438;2022-12-18T08:13:31;2.80;99.90
11656;DHT22;5884;43.618;1.438;2022-12-18T08:15:59;2.90;99.90
11656;DHT22;5884;43.618;1.438;2022-12-18T08:18:28;2.80;99.90
11656;DHT22;5884;43.618;1.438;2022-12-18T08:20:57;2.90;99.90
11656;DHT22;5884;43.618;1.438;2022-12-18T08:23:24;2.90;99.90
11656;DHT22;5884;43.618;1.438;2022-12-18T08:25:51;2.90;99.90
11656;DHT22;5884;43.618;1.438;2022-12-18T08:28:18;3.00;99.90
11656;DHT22;5884;43.618;1.438;2022-12-18T08:30:46;3.00;99.90
11656;DHT22;5884;43.618;1.438;2022-12-18T08:33:13;3.10;99.90
11656;DHT22;5884;43.618;1.438;2022-12-18T08:35:40;3.10;99.90
11656;DHT22;5884;43.618;1.438;2022-12-18T08:38:09;3.10;99.90
11656;DHT22;5884;43.618;1.438;2022-12-18T08:40:36;3.20;99.90
11656;DHT22;5884;43.618;1.438;2022-12-18T08:43:03;3.20;99.90
11656;DHT22;5884;43.618;1.438;2022-12-18T08:45:48;3.30;99.90
11656;DHT22;5884;43.618;1.438;2022-12-18T08:48:15;3.40;99.90
11656;DHT22;5884;43.618;1.438;2022-12-18T08:50:43;3.40;99.90
11656;DHT22;5884;43.618;1.438;2022-12-18T08:53:12;3.50;99.90
11656;DHT22;5884;43.618;1.438;2022-12-18T08:55:39;3.50;99.90
11656;DHT22;5884;43.618;1.438;2022-12-18T08:58:07;3.50;99.90
11656;DHT22;5884;43.618;1.438;2022-12-18T09:00:34;3.60;99.90
11656;DHT22;5884;43.618;1.438;2022-12-18T09:03:04;3.70;99.90
11656;DHT22;5884;43.618;1.438;2022-12-18T09:05:31;3.80;99.90
11656;DHT22;5884;43.618;1.438;2022-12-18T09:07:59;4.00;99.90
11656;DHT22;5884;43.618;1.438;2022-12-18T09:10:27;4.10;99.90
11656;DHT22;5884;43.618;1.438;2022-12-18T09:12:54;4.20;99.90
11656;DHT22;5884;43.618;1.438;2022-12-18T09:15:22;4.40;99.90
11656;DHT22;5884;43.618;1.438;2022-12-18T09:17:49;4.50;99.90
11656;DHT22;5884;43.618;1.438;2022-12-18T09:20:19;4.60;99.90
11656;DHT22;5884;43.618;1.438;2022-12-18T09:22:46;5.40;99.90
11656;DHT22;5884;43.618;1.438;2022-12-18T09:25:13;5.90;99.90
11656;DHT22;5884;43.618;1.438;2022-12-18T09:27:42;6.20;99.90
11656;DHT22;5884;43.618;1.438;2022-12-18T09:30:10;6.40;99.90
11656;DHT22;5884;43.618;1.438;2022-12-18T09:32:37;6.50;99.90
11656;DHT22;5884;43.618;1.438;2022-12-18T09:35:05;6.80;99.90
11656;DHT22;5884;43.618;1.438;2022-12-18T09:37:33;7.00;99.90
11656;DHT22;5884;43.618;1.438;2022-12-18T09:40:00;7.20;99.90
11656;DHT22;5884;43.618;1.438;2022-12-18T09:42:27;7.30;99.90
11656;DHT22;5884;43.618;1.438;2022-12-18T09:44:56;7.40;99.90
11656;DHT22;5884;43.618;1.438;2022-12-18T09:47:28;7.60;99.90
11656;DHT22;5884;43.618;1.438;2022-12-18T09:50:01;7.70;99.90
11656;DHT22;5884;43.618;1.438;2022-12-18T09:52:37;7.90;99.90
11656;DHT22;5884;43.618;1.438;2022-12-18T09:55:22;8.00;99.90
11656;DHT22;5884;43.618;1.438;2022-12-18T09:57:55;8.10;99.90
11656;DHT22;5884;43.618;1.438;2022-12-18T10:00:25;8.30;99.90
11656;DHT22;5884;43.618;1.438;2022-12-18T10:02:58;8.30;99.90
11656;DHT22;5884;43.618;1.438;2022-12-18T10:05:33;8.40;99.90
11656;DHT22;5884;43.618;1.438;2022-12-18T10:08:07;8.50;99.90
11656;DHT22;5884;43.618;1.438;2022-12-18T10:10:41;8.60;99.90
11656;DHT22;5884;43.618;1.438;2022-12-18T10:13:18;8.70;99.90
11656;DHT22;5884;43.618;1.438;2022-12-18T10:16:00;8.70;99.90
11656;DHT22;5884;43.618;1.438;2022-12-18T10:18:42;8.80;99.90
11656;DHT22;5884;43.618;1.438;2022-12-18T10:21:26;8.90;99.90
11656;DHT22;5884;43.618;1.438;2022-12-18T10:24:03;9.00;99.90
11656;DHT22;5884;43.618;1.438;2022-12-18T10:26:41;9.10;99.90
11656;DHT22;5884;43.618;1.438;2022-12-18T10:29:11;9.20;99.90
11656;DHT22;5884;43.618;1.438;2022-12-18T10:31:42;9.30;99.90
11656;DHT22;5884;43.618;1.438;2022-12-18T10:34:10;9.20;99.90
11656;DHT22;5884;43.618;1.438;2022-12-18T10:36:37;9.20;99.90
11656;DHT22;5884;43.618;1.438;2022-12-18T10:39:15;9.20;99.90
11656;DHT22;5884;43.618;1.438;2022-12-18T10:41:44;9.30;99.90
11656;DHT22;5884;43.618;1.438;2022-12-18T10:44:16;9.30;99.90
11656;DHT22;5884;43.618;1.438;2022-12-18T10:46:46;9.30;99.90
11656;DHT22;5884;43.618;1.438;2022-12-18T10:49:21;9.40;99.90
11656;DHT22;5884;43.618;1.438;2022-12-18T10:51:50;9.40;99.90
11656;DHT22;5884;43.618;1.438;2022-12-18T10:54:21;9.50;99.90
11656;DHT22;5884;43.618;1.438;2022-12-18T10:56:49;9.50;99.90
11656;DHT22;5884;43.618;1.438;2022-12-18T10:59:17;9.50;99.90
11656;DHT22;5884;43.618;1.438;2022-12-18T11:01:51;9.50;99.90
11656;DHT22;5884;43.618;1.438;2022-12-18T11:04:22;9.50;99.90
11656;DHT22;5884;43.618;1.438;2022-12-18T11:06:58;9.60;99.90
11656;DHT22;5884;43.618;1.438;2022-12-18T11:09:27;9.60;99.90
11656;DHT22;5884;43.618;1.438;2022-12-18T11:11:59;9.60;99.90
11656;DHT22;5884;43.618;1.438;2022-12-18T11:14:28;9.80;99.90
11656;DHT22;5884;43.618;1.438;2022-12-18T11:16:59;9.80;99.90
11656;DHT22;5884;43.618;1.438;2022-12-18T11:19:32;9.80;99.90
11656;DHT22;5884;43.618;1.438;2022-12-18T11:22:02;9.80;99.90
11656;DHT22;5884;43.618;1.438;2022-12-18T11:24:53;9.80;99.90
11656;DHT22;5884;43.618;1.438;2022-12-18T11:27:23;9.80;99.90
11656;DHT22;5884;43.618;1.438;2022-12-18T11:29:51;9.90;99.90
11656;DHT22;5884;43.618;1.438;2022-12-18T11:32:32;9.90;99.90
11656;DHT22;5884;43.618;1.438;2022-12-18T11:35:10;9.90;99.90
11656;DHT22;5884;43.618;1.438;2022-12-18T11:37:43;9.90;99.90
11656;DHT22;5884;43.618;1.438;2022-12-18T11:40:16;10.00;99.90
11656;DHT22;5884;43.618;1.438;2022-12-18T11:42:48;10.10;99.90
11656;DHT22;5884;43.618;1.438;2022-12-18T11:45:26;10.10;99.90
11656;DHT22;5884;43.618;1.438;2022-12-18T11:48:01;10.10;99.90
11656;DHT22;5884;43.618;1.438;2022-12-18T11:50:45;10.20;99.90
11656;DHT22;5884;43.618;1.438;2022-12-18T11:53:15;10.20;99.90
11656;DHT22;5884;43.618;1.438;2022-12-18T11:55:57;10.20;99.90
11656;DHT22;5884;43.618;1.438;2022-12-18T11:58:45;10.30;99.90
11656;DHT22;5884;43.618;1.438;2022-12-18T12:01:22;10.40;99.90
11656;DHT22;5884;43.618;1.438;2022-12-18T12:07:28;10.30;99.90
11656;DHT22;5884;43.618;1.438;2022-12-18T12:10:12;10.40;99.90
11656;DHT22;5884;43.618;1.438;2022-12-18T12:12:59;10.40;99.90
11656;DHT22;5884;43.618;1.438;2022-12-18T12:15:46;10.40;99.90
11656;DHT22;5884;43.618;1.438;2022-12-18T12:18:28;10.40;99.90
11656;DHT22;5884;43.618;1.438;2022-12-18T12:21:07;10.40;99.90
11656;DHT22;5884;43.618;1.438;2022-12-18T12:23:47;10.40;99.90
11656;DHT22;5884;43.618;1.438;2022-12-18T12:26:25;10.50;99.90
11656;DHT22;5884;43.618;1.438;2022-12-18T12:29:01;10.50;99.90
11656;DHT22;5884;43.618;1.438;2022-12-18T12:31:48;10.70;99.90
11656;DHT22;5884;43.618;1.438;2022-12-18T12:34:25;10.70;99.90
11656;DHT22;5884;43.618;1.438;2022-12-18T12:37:08;10.80;99.90
11656;DHT22;5884;43.618;1.438;2022-12-18T12:39:44;10.80;99.90
11656;DHT22;5884;43.618;1.438;2022-12-18T12:42:18;10.90;99.90
11656;DHT22;5884;43.618;1.438;2022-12-18T12:45:06;10.80;99.90
11656;DHT22;5884;43.618;1.438;2022-12-18T12:47:42;10.90;99.90
11656;DHT22;5884;43.618;1.438;2022-12-18T12:50:15;10.90;99.90
11656;DHT22;5884;43.618;1.438;2022-12-18T12:52:46;10.90;99.90
11656;DHT22;5884;43.618;1.438;2022-12-18T12:55:17;10.90;99.90
11656;DHT22;5884;43.618;1.438;2022-12-18T12:57:51;10.90;99.90
11656;DHT22;5884;43.618;1.438;2022-12-18T13:00:23;11.00;99.90
11656;DHT22;5884;43.618;1.438;2022-12-18T13:02:57;11.00;99.90
11656;DHT22;5884;43.618;1.438;2022-12-18T13:05:33;11.00;99.90
11656;DHT22;5884;43.618;1.438;2022-12-18T13:08:08;11.00;99.90
11656;DHT22;5884;43.618;1.438;2022-12-18T13:10:37;11.10;99.90
11656;DHT22;5884;43.618;1.438;2022-12-18T13:13:07;11.00;99.90
11656;DHT22;5884;43.618;1.438;2022-12-18T13:15:38;11.10;99.90
11656;DHT22;5884;43.618;1.438;2022-12-18T13:18:18;11.10;99.90
11656;DHT22;5884;43.618;1.438;2022-12-18T13:20:49;11.10;99.90
11656;DHT22;5884;43.618;1.438;2022-12-18T13:23:37;11.10;99.90
11656;DHT22;5884;43.618;1.438;2022-12-18T13:26:29;11.10;99.90
11656;DHT22;5884;43.618;1.438;2022-12-18T13:29:02;11.20;99.90
11656;DHT22;5884;43.618;1.438;2022-12-18T13:31:58;11.20;99.90
11656;DHT22;5884;43.618;1.438;2022-12-18T13:34:27;11.20;99.90
11656;DHT22;5884;43.618;1.438;2022-12-18T13:36:57;11.20;99.90
11656;DHT22;5884;43.618;1.438;2022-12-18T13:43:32;11.20;99.90
11656;DHT22;5884;43.618;1.438;2022-12-18T13:46:05;11.10;99.90
11656;DHT22;5884;43.618;1.438;2022-12-18T13:48:55;11.20;99.90
11656;DHT22;5884;43.618;1.438;2022-12-18T13:51:25;11.10;99.90
11656;DHT22;5884;43.618;1.438;2022-12-18T13:53:55;11.20;99.90
11656;DHT22;5884;43.618;1.438;2022-12-18T13:56:27;11.30;99.90
11656;DHT22;5884;43.618;1.438;2022-12-18T13:59:17;11.30;99.90
11656;DHT22;5884;43.618;1.438;2022-12-18T14:01:48;11.30;99.90
11656;DHT22;5884;43.618;1.438;2022-12-18T14:04:25;11.30;99.90
11656;DHT22;5884;43.618;1.438;2022-12-18T14:06:57;11.30;99.90
11656;DHT22;5884;43.618;1.438;2022-12-18T14:09:28;11.30;99.90
11656;DHT22;5884;43.618;1.438;2022-12-18T14:11:58;11.30;99.90
11656;DHT22;5884;43.618;1.438;2022-12-18T14:14:46;11.40;99.90
11656;DHT22;5884;43.618;1.438;2022-12-18T14:17:15;11.40;99.90
11656;DHT22;5884;43.618;1.438;2022-12-18T14:19:44;11.40;99.90
11656;DHT22;5884;43.618;1.438;2022-12-18T14:22:15;11.40;99.90
11656;DHT22;5884;43.618;1.438;2022-12-18T14:24:44;11.30;99.90
11656;DHT22;5884;43.618;1.438;2022-12-18T14:27:21;11.30;99.90
11656;DHT22;5884;43.618;1.438;2022-12-18T14:29:53;11.40;99.90
11656;DHT22;5884;43.618;1.438;2022-12-18T14:32:23;11.40;99.90
11656;DHT22;5884;43.618;1.438;2022-12-18T14:34:54;11.30;99.90
11656;DHT22;5884;43.618;1.438;2022-12-18T14:37:23;11.40;99.90
11656;DHT22;5884;43.618;1.438;2022-12-18T14:39:55;11.40;99.90
11656;DHT22;5884;43.618;1.438;2022-12-18T14:42:26;11.40;99.90
11656;DHT22;5884;43.618;1.438;2022-12-18T14:48:05;11.40;99.90
11656;DHT22;5884;43.618;1.438;2022-12-18T14:50:33;11.30;99.90
11656;DHT22;5884;43.618;1.438;2022-12-18T14:53:00;11.30;99.90
11656;DHT22;5884;43.618;1.438;2022-12-18T14:55:27;11.30;99.90
11656;DHT22;5884;43.618;1.438;2022-12-18T14:57:57;11.30;99.90
11656;DHT22;5884;43.618;1.438;2022-12-18T15:00:25;11.20;99.90
11656;DHT22;5884;43.618;1.438;2022-12-18T15:02:55;11.20;99.90
11656;DHT22;5884;43.618;1.438;2022-12-18T15:05:27;11.20;99.90
11656;DHT22;5884;43.618;1.438;2022-12-18T15:07:56;11.20;99.90
11656;DHT22;5884;43.618;1.438;2022-12-18T15:10:26;11.10;99.90
11656;DHT22;5884;43.618;1.438;2022-12-18T15:13:15;11.10;99.90
11656;DHT22;5884;43.618;1.438;2022-12-18T15:15:48;11.10;99.90
11656;DHT22;5884;43.618;1.438;2022-12-18T15:18:17;11.10;99.90
11656;DHT22;5884;43.618;1.438;2022-12-18T15:20:48;11.10;99.90
11656;DHT22;5884;43.618;1.438;2022-12-18T15:23:19;11.10;99.90
11656;DHT22;5884;43.618;1.438;2022-12-18T15:25:49;11.00;99.90
11656;DHT22;5884;43.618;1.438;2022-12-18T15:28:26;10.90;99.90
11656;DHT22;5884;43.618;1.438;2022-12-18T15:31:17;10.90;99.90
11656;DHT22;5884;43.618;1.438;2022-12-18T15:34:22;10.90;99.90
11656;DHT22;5884;43.618;1.438;2022-12-18T15:36:51;10.80;99.90
11656;DHT22;5884;43.618;1.438;2022-12-18T15:39:18;10.90;99.90
11656;DHT22;5884;43.618;1.438;2022-12-18T15:41:46;10.80;99.90
11656;DHT22;5884;43.618;1.438;2022-12-18T15:44:28;10.70;99.90
11656;DHT22;5884;43.618;1.438;2022-12-18T15:46:56;10.70;99.90
11656;DHT22;5884;43.618;1.438;2022-12-18T15:49:23;10.70;99.90
11656;DHT22;5884;43.618;1.438;2022-12-18T15:51:53;10.60;99.90
11656;DHT22;5884;43.618;1.438;2022-12-18T15:54:21;10.50;99.90
11656;DHT22;5884;43.618;1.438;2022-12-18T15:57:09;10.50;99.90
11656;DHT22;5884;43.618;1.438;2022-12-18T15:59:53;10.50;99.90
11656;DHT22;5884;43.618;1.438;2022-12-18T16:02:24;10.50;99.90
11656;DHT22;5884;43.618;1.438;2022-12-18T16:04:53;10.40;99.90
11656;DHT22;5884;43.618;1.438;2022-12-18T16:07:20;10.40;99.90
11656;DHT22;5884;43.618;1.438;2022-12-18T16:09:48;10.30;99.90
11656;DHT22;5884;43.618;1.438;2022-12-18T16:12:17;10.30;99.90
11656;DHT22;5884;43.618;1.438;2022-12-18T16:14:46;10.30;99.90
11656;DHT22;5884;43.618;1.438;2022-12-18T16:17:15;10.30;99.90
11656;DHT22;5884;43.618;1.438;2022-12-18T16:19:42;10.20;99.90
11656;DHT22;5884;43.618;1.438;2022-12-18T16:22:18;10.30;99.90
11656;DHT22;5884;43.618;1.438;2022-12-18T16:24:48;10.20;99.90
11656;DHT22;5884;43.618;1.438;2022-12-18T16:27:16;10.20;99.90
11656;DHT22;5884;43.618;1.438;2022-12-18T16:29:44;10.10;99.90
11656;DHT22;5884;43.618;1.438;2022-12-18T16:32:15;10.10;99.90
11656;DHT22;5884;43.618;1.438;2022-12-18T16:34:44;10.00;99.90
11656;DHT22;5884;43.618;1.438;2022-12-18T16:37:13;10.00;99.90
11656;DHT22;5884;43.618;1.438;2022-12-18T16:39:42;10.00;99.90
11656;DHT22;5884;43.618;1.438;2022-12-18T16:42:11;10.10;99.90
11656;DHT22;5884;43.618;1.438;2022-12-18T16:44:42;10.10;99.90
11656;DHT22;5884;43.618;1.438;2022-12-18T16:47:09;10.00;99.90
11656;DHT22;5884;43.618;1.438;2022-12-18T16:49:38;10.00;99.90
11656;DHT22;5884;43.618;1.438;2022-12-18T16:52:06;10.00;99.90
11656;DHT22;5884;43.618;1.438;2022-12-18T16:54:33;10.00;99.90
11656;DHT22;5884;43.618;1.438;2022-12-18T16:57:01;9.90;99.90
11656;DHT22;5884;43.618;1.438;2022-12-18T16:59:30;10.00;99.90
11656;DHT22;5884;43.618;1.438;2022-12-18T17:01:57;9.90;99.90
11656;DHT22;5884;43.618;1.438;2022-12-18T17:04:24;10.00;99.90
11656;DHT22;5884;43.618;1.438;2022-12-18T17:06:53;9.90;99.90
11656;DHT22;5884;43.618;1.438;2022-12-18T17:09:21;9.90;99.90
11656;DHT22;5884;43.618;1.438;2022-12-18T17:11:51;9.90;99.90
11656;DHT22;5884;43.618;1.438;2022-12-18T17:14:20;9.80;99.90
11656;DHT22;5884;43.618;1.438;2022-12-18T17:16:50;9.90;99.90
11656;DHT22;5884;43.618;1.438;2022-12-18T17:19:17;9.90;99.90
11656;DHT22;5884;43.618;1.438;2022-12-18T17:21:48;9.90;99.90
11656;DHT22;5884;43.618;1.438;2022-12-18T17:24:18;9.90;99.90
11656;DHT22;5884;43.618;1.438;2022-12-18T17:26:46;10.00;99.90
11656;DHT22;5884;43.618;1.438;2022-12-18T17:29:16;9.90;99.90
11656;DHT22;5884;43.618;1.438;2022-12-18T17:31:44;10.00;99.90
11656;DHT22;5884;43.618;1.438;2022-12-18T17:34:12;10.00;99.90
11656;DHT22;5884;43.618;1.438;2022-12-18T17:36:40;10.00;99.90
11656;DHT22;5884;43.618;1.438;2022-12-18T17:39:07;10.00;99.90
11656;DHT22;5884;43.618;1.438;2022-12-18T17:41:40;10.00;99.90
11656;DHT22;5884;43.618;1.438;2022-12-18T17:44:08;10.10;99.90
11656;DHT22;5884;43.618;1.438;2022-12-18T17:46:35;10.10;99.90
11656;DHT22;5884;43.618;1.438;2022-12-18T17:49:03;10.10;99.90
11656;DHT22;5884;43.618;1.438;2022-12-18T17:51:31;10.20;99.90
11656;DHT22;5884;43.618;1.438;2022-12-18T17:53:58;10.20;99.90
11656;DHT22;5884;43.618;1.438;2022-12-18T17:56:26;10.20;99.90
11656;DHT22;5884;43.618;1.438;2022-12-18T17:58:54;10.20;99.90
11656;DHT22;5884;43.618;1.438;2022-12-18T18:01:23;10.30;99.90
11656;DHT22;5884;43.618;1.438;2022-12-18T18:03:51;10.30;99.90
11656;DHT22;5884;43.618;1.438;2022-12-18T18:06:20;10.30;99.90
11656;DHT22;5884;43.618;1.438;2022-12-18T18:08:48;10.30;99.90
11656;DHT22;5884;43.618;1.438;2022-12-18T18:11:18;10.30;99.90
11656;DHT22;5884;43.618;1.438;2022-12-18T18:14:10;10.30;99.90
11656;DHT22;5884;43.618;1.438;2022-12-18T18:16:41;10.30;99.90
11656;DHT22;5884;43.618;1.438;2022-12-18T18:19:11;10.40;99.90
11656;DHT22;5884;43.618;1.438;2022-12-18T18:21:42;10.30;99.90
11656;DHT22;5884;43.618;1.438;2022-12-18T18:24:11;10.30;99.90
11656;DHT22;5884;43.618;1.438;2022-12-18T18:26:40;10.40;99.90
11656;DHT22;5884;43.618;1.438;2022-12-18T18:29:12;10.40;99.90
11656;DHT22;5884;43.618;1.438;2022-12-18T18:31:41;10.40;99.90
11656;DHT22;5884;43.618;1.438;2022-12-18T18:34:13;10.40;99.90
11656;DHT22;5884;43.618;1.438;2022-12-18T18:36:41;10.40;99.90
11656;DHT22;5884;43.618;1.438;2022-12-18T18:39:08;10.40;99.90
11656;DHT22;5884;43.618;1.438;2022-12-18T18:41:35;10.50;99.90
11656;DHT22;5884;43.618;1.438;2022-12-18T18:44:03;10.50;99.90
11656;DHT22;5884;43.618;1.438;2022-12-18T18:46:32;10.40;99.90
11656;DHT22;5884;43.618;1.438;2022-12-18T18:48:59;10.40;99.90
11656;DHT22;5884;43.618;1.438;2022-12-18T18:51:26;10.40;99.90
11656;DHT22;5884;43.618;1.438;2022-12-18T18:53:54;10.50;99.90
11656;DHT22;5884;43.618;1.438;2022-12-18T18:56:23;10.50;99.90
11656;DHT22;5884;43.618;1.438;2022-12-18T18:58:53;10.60;99.90
11656;DHT22;5884;43.618;1.438;2022-12-18T19:01:21;10.50;99.90
11656;DHT22;5884;43.618;1.438;2022-12-18T19:03:51;10.50;99.90
11656;DHT22;5884;43.618;1.438;2022-12-18T19:06:21;10.60;99.90
11656;DHT22;5884;43.618;1.438;2022-12-18T19:08:50;10.50;99.90
11656;DHT22;5884;43.618;1.438;2022-12-18T19:11:18;10.50;99.90
11656;DHT22;5884;43.618;1.438;2022-12-18T19:14:06;10.50;99.90
11656;DHT22;5884;43.618;1.438;2022-12-18T19:16:35;10.50;99.90
11656;DHT22;5884;43.618;1.438;2022-12-18T19:19:04;10.50;99.90
11656;DHT22;5884;43.618;1.438;2022-12-18T19:21:32;10.60;99.90
11656;DHT22;5884;43.618;1.438;2022-12-18T19:23:59;10.60;99.90
11656;DHT22;5884;43.618;1.438;2022-12-18T19:26:27;10.60;99.90
11656;DHT22;5884;43.618;1.438;2022-12-18T19:29:00;10.60;99.90
11656;DHT22;5884;43.618;1.438;2022-12-18T19:31:27;10.60;99.90
11656;DHT22;5884;43.618;1.438;2022-12-18T19:33:55;10.60;99.90
11656;DHT22;5884;43.618;1.438;2022-12-18T19:36:26;10.50;99.90
11656;DHT22;5884;43.618;1.438;2022-12-18T19:38:55;10.50;99.90
11656;DHT22;5884;43.618;1.438;2022-12-18T19:41:25;10.60;99.90
11656;DHT22;5884;43.618;1.438;2022-12-18T19:43:53;10.60;99.90
11656;DHT22;5884;43.618;1.438;2022-12-18T19:46:22;10.50;99.90
11656;DHT22;5884;43.618;1.438;2022-12-18T19:48:49;10.50;99.90
11656;DHT22;5884;43.618;1.438;2022-12-18T19:51:19;10.50;99.90
11656;DHT22;5884;43.618;1.438;2022-12-18T19:53:49;10.50;99.90
11656;DHT22;5884;43.618;1.438;2022-12-18T19:56:19;10.50;99.90
11656;DHT22;5884;43.618;1.438;2022-12-18T19:58:49;10.50;99.90
11656;DHT22;5884;43.618;1.438;2022-12-18T20:01:17;10.50;99.90
11656;DHT22;5884;43.618;1.438;2022-12-18T20:03:45;10.50;99.90
11656;DHT22;5884;43.618;1.438;2022-12-18T20:06:16;10.50;99.90
11656;DHT22;5884;43.618;1.438;2022-12-18T20:08:46;10.60;99.90
11656;DHT22;5884;43.618;1.438;2022-12-18T20:11:14;10.50;99.90
11656;DHT22;5884;43.618;1.438;2022-12-18T20:13:42;10.50;99.90
11656;DHT22;5884;43.618;1.438;2022-12-18T20:16:09;10.60;99.90
11656;DHT22;5884;43.618;1.438;2022-12-18T20:18:37;10.60;99.90
11656;DHT22;5884;43.618;1.438;2022-12-18T20:21:04;10.50;99.90
11656;DHT22;5884;43.618;1.438;2022-12-18T20:23:32;10.60;99.90
11656;DHT22;5884;43.618;1.438;2022-12-18T20:25:59;10.50;99.90
11656;DHT22;5884;43.618;1.438;2022-12-18T20:28:29;10.50;99.90
11656;DHT22;5884;43.618;1.438;2022-12-18T20:31:00;10.60;99.90
11656;DHT22;5884;43.618;1.438;2022-12-18T20:33:27;10.50;99.90
11656;DHT22;5884;43.618;1.438;2022-12-18T20:35:59;10.40;99.90
11656;DHT22;5884;43.618;1.438;2022-12-18T20:38:28;10.50;99.90
11656;DHT22;5884;43.618;1.438;2022-12-18T20:40:55;10.40;99.90
11656;DHT22;5884;43.618;1.438;2022-12-18T20:43:24;10.40;99.90
11656;DHT22;5884;43.618;1.438;2022-12-18T20:45:59;10.40;99.90
11656;DHT22;5884;43.618;1.438;2022-12-18T20:48:27;10.50;99.90
11656;DHT22;5884;43.618;1.438;2022-12-18T20:50:58;10.50;99.90
11656;DHT22;5884;43.618;1.438;2022-12-18T20:53:26;10.60;99.90
11656;DHT22;5884;43.618;1.438;2022-12-18T20:55:54;10.60;99.90
11656;DHT22;5884;43.618;1.438;2022-12-18T20:58:21;10.60;99.90
11656;DHT22;5884;43.618;1.438;2022-12-18T21:00:48;10.60;99.90
11656;DHT22;5884;43.618;1.438;2022-12-18T21:03:17;10.60;99.90
11656;DHT22;5884;43.618;1.438;2022-12-18T21:05:44;10.70;99.90
11656;DHT22;5884;43.618;1.438;2022-12-18T21:08:12;10.70;99.90
11656;DHT22;5884;43.618;1.438;2022-12-18T21:10:39;10.60;99.90
11656;DHT22;5884;43.618;1.438;2022-12-18T21:13:07;10.60;99.90
11656;DHT22;5884;43.618;1.438;2022-12-18T21:15:33;10.60;99.90
11656;DHT22;5884;43.618;1.438;2022-12-18T21:18:01;10.70;99.90
11656;DHT22;5884;43.618;1.438;2022-12-18T21:20:30;10.70;99.90
11656;DHT22;5884;43.618;1.438;2022-12-18T21:22:57;10.80;99.90
11656;DHT22;5884;43.618;1.438;2022-12-18T21:25:27;10.80;99.90
11656;DHT22;5884;43.618;1.438;2022-12-18T21:27:54;10.70;99.90
11656;DHT22;5884;43.618;1.438;2022-12-18T21:30:21;10.80;99.90
11656;DHT22;5884;43.618;1.438;2022-12-18T21:32:49;10.70;99.90
11656;DHT22;5884;43.618;1.438;2022-12-18T21:35:16;10.70;99.90
11656;DHT22;5884;43.618;1.438;2022-12-18T21:37:45;10.70;99.90
11656;DHT22;5884;43.618;1.438;2022-12-18T21:40:12;10.70;99.90
11656;DHT22;5884;43.618;1.438;2022-12-18T21:42:39;10.60;99.90
11656;DHT22;5884;43.618;1.438;2022-12-18T21:45:24;10.70;99.90
11656;DHT22;5884;43.618;1.438;2022-12-18T21:47:53;10.80;99.90
11656;DHT22;5884;43.618;1.438;2022-12-18T21:50:20;10.70;99.90
11656;DHT22;5884;43.618;1.438;2022-12-18T21:52:49;10.70;99.90
11656;DHT22;5884;43.618;1.438;2022-12-18T21:55:17;10.70;99.90
11656;DHT22;5884;43.618;1.438;2022-12-18T21:57:44;10.70;99.90
